Meteo Giornale » Osservazioni meteo Stati Uniti (USA) » Ogden Ogden-Hinckley
ore: 13:53 - Osservazioni Meteo Ogden Ogden-Hinckley
Lat. 41° 11' N Lon. 112° 0' W Alt. 1362 metri s.l.m.
26 °C
Molto Nuvoloso
Temp. 24 Ore
14 °C
27 °C
Sud
25.9 Km/h
Dew point 12 °C
Umidità 41 %
Visibilità 10 Km
Il sole sorge alle ore 06:54
Il sole tramonta alle ore 20:00
| Data e Ora | Cielo e Fenomeni | T °C | DP °C | Um. % | Pres. hPa | Vis. km | Vento km/h | |
|---|---|---|---|---|---|---|---|---|
| Oggi h: 13:53 | Molto Nuvoloso | 26 | 12 | 41 | 1017 | 10 | S 25.9 | |
| Oggi h: 12:53 | Poco Nuvoloso | 25 | 11 | 41 | 1018 | 10 | S 25.9 | |
| Oggi h: 11:53 | Sereno | 24 | 11 | 43 | 1018 | 10 | S 27.8 | |
| Oggi h: 10:53 | Sereno | 21 | 11 | 52 | 1018 | 10 | SE 9.3 | |
| Oggi h: 09:53 | Sereno | 19 | 11 | 59 | 1018 | 10 | S/SE 13 | |
| Oggi h: 08:53 | Sereno | 18 | 11 | 63 | 1018 | 10 | S/SE 9.3 | |
| Oggi h: 07:53 | Sereno | 15 | 12 | 82 | 1018 | 10 | SE 7.4 | |
| Oggi h: 06:53 | Sereno | 14 | 12 | 87 | 1018 | 10 | S/SE 9.3 | |
| Oggi h: 05:53 | Sereno | 14 | 12 | 87 | 1018 | 10 | N 0 | |
| Oggi h: 04:53 | Sereno | 15 | 12 | 82 | 1018 | 10 | S/SE 9.3 | |
| Oggi h: 03:53 | Poco Nuvoloso | 16 | 12 | 77 | 1018 | 10 | S/SE 11.1 | |
| Oggi h: 02:53 | Sereno | 17 | 12 | 72 | 1018 | 10 | SE 9.3 | |
| Oggi h: 01:53 | Nuvoloso | 17 | 12 | 72 | 1018 | 10 | S 11.1 | |
| Oggi h: 00:53 | Coperto | 17 | 12 | 72 | 1018 | 10 | S 13 | |
| Ieri h: 23:53 | Molto Nuvoloso | 17 | 12 | 72 | 1018 | 10 | S 13 | |
| Ieri h: 22:53 | Molto Nuvoloso | 17 | 13 | 77 | 1019 | 10 | S/SE 13 | |
| Ieri h: 21:53 | Nuvoloso | 18 | 11 | 63 | 1019 | 10 | S 9.3 | |
| Ieri h: 20:53 | Molto Nuvoloso | 18 | 12 | 67 | 1019 | 10 | S/SE 11.1 | |
| Ieri h: 19:53 | Pioggia | 18 | 11 | 63 | 1019 | 10 | SE 29.6 | |
| Ieri h: 18:53 | Pioggia | 18 | 12 | 67 | 1018 | 10 | SE 35.2 | |
| Ieri h: 18:39 | Temporale nelle vicinanze Pioggia | 19 | 11 | 59 | 1017 | 10 | SE 46.3 | |
| Ieri h: 18:13 | Temporale | 20 | 11 | 56 | 1016 | 10 | SE 53.7 | |
| Ieri h: 18:00 | Temporale nelle vicinanze Pioggia | 19 | 12 | 63 | 1017 | 10 | S/SE 42.6 | |
| Ieri h: 17:53 | Temporale nelle vicinanze Pioggia | 22 | 12 | 53 | 1016 | 10 | S/SE 50 | |
| Ieri h: 17:44 | Temporale nelle vicinanze | 24 | 12 | 47 | 1017 | 10 | S 25.9 | |
| Ieri h: 16:53 | Sereno | 26 | 11 | 39 | 1015 | 10 | N 5.5 | |
| Ieri h: 15:53 | Sereno | 27 | 9 | 32 | 1015 | 10 | O/SO 7.4 | |
| Ieri h: 14:53 | Sereno | 27 | 9 | 32 | 1016 | 10 | N 0 | |



